sensor_id;sensor_type;location;lat;lon;timestamp;pressure;altitude;pressure_sealevel;temperature;humidity
27958;BME280;15295;42.658;23.374;2022-12-29T00:01:58;95502.13;;;10.71;51.97
27958;BME280;15295;42.658;23.374;2022-12-29T00:06:59;95497.06;;;10.73;51.80
27958;BME280;15295;42.658;23.374;2022-12-29T00:09:25;95496.00;;;10.85;51.41
27958;BME280;15295;42.658;23.374;2022-12-29T00:11:51;95502.34;;;10.93;51.40
27958;BME280;15295;42.658;23.374;2022-12-29T00:14:17;95505.81;;;10.90;50.43
27958;BME280;15295;42.658;23.374;2022-12-29T00:17:02;95443.66;;;10.43;50.50
27958;BME280;15295;42.658;23.374;2022-12-29T00:19:29;95511.28;;;10.90;50.16
27958;BME280;15295;42.658;23.374;2022-12-29T00:22:14;95497.00;;;10.66;50.36
27958;BME280;15295;42.658;23.374;2022-12-29T00:24:59;95516.25;;;10.77;50.46
27958;BME280;15295;42.658;23.374;2022-12-29T00:27:32;95517.69;;;10.64;50.77
27958;BME280;15295;42.658;23.374;2022-12-29T00:30:18;95507.22;;;10.73;50.67
27958;BME280;15295;42.658;23.374;2022-12-29T00:33:17;95489.97;;;10.65;50.67
27958;BME280;15295;42.658;23.374;2022-12-29T00:38:32;95492.34;;;10.70;50.41
27958;BME280;15295;42.658;23.374;2022-12-29T00:41:19;95503.84;;;10.86;50.25
27958;BME280;15295;42.658;23.374;2022-12-29T00:44:03;95512.03;;;10.86;50.09
27958;BME280;15295;42.658;23.374;2022-12-29T00:46:39;95517.47;;;10.83;50.05
27958;BME280;15295;42.658;23.374;2022-12-29T00:49:06;95515.16;;;10.85;50.02
27958;BME280;15295;42.658;23.374;2022-12-29T00:51:51;95520.69;;;10.92;50.02
27958;BME280;15295;42.658;23.374;2022-12-29T00:54:17;95522.25;;;10.93;49.96
27958;BME280;15295;42.658;23.374;2022-12-29T00:56:48;95519.91;;;10.92;49.77
27958;BME280;15295;42.658;23.374;2022-12-29T00:59:14;95512.00;;;10.83;49.88
27958;BME280;15295;42.658;23.374;2022-12-29T01:01:40;95520.72;;;10.96;49.79
27958;BME280;15295;42.658;23.374;2022-12-29T01:04:06;95517.56;;;10.94;49.63
27958;BME280;15295;42.658;23.374;2022-12-29T01:06:32;95510.91;;;10.91;49.84
27958;BME280;15295;42.658;23.374;2022-12-29T01:08:58;95516.84;;;10.97;49.89
27958;BME280;15295;42.658;23.374;2022-12-29T01:11:42;95501.97;;;10.94;49.70
27958;BME280;15295;42.658;23.374;2022-12-29T01:14:07;95497.22;;;10.91;49.79
27958;BME280;15295;42.658;23.374;2022-12-29T01:16:34;95503.19;;;11.00;49.63
27958;BME280;15295;42.658;23.374;2022-12-29T01:19:01;95505.59;;;11.05;49.72
27958;BME280;15295;42.658;23.374;2022-12-29T01:21:27;95498.44;;;10.94;50.02
27958;BME280;15295;42.658;23.374;2022-12-29T01:23:52;95508.31;;;11.05;49.81
27958;BME280;15295;42.658;23.374;2022-12-29T01:26:20;95500.06;;;11.02;49.96
27958;BME280;15295;42.658;23.374;2022-12-29T01:28:46;95496.91;;;10.96;49.91
27958;BME280;15295;42.658;23.374;2022-12-29T01:31:13;95504.78;;;11.05;49.83
27958;BME280;15295;42.658;23.374;2022-12-29T01:33:39;95501.34;;;11.11;49.67
27958;BME280;15295;42.658;23.374;2022-12-29T01:36:08;95493.84;;;11.05;49.66
27958;BME280;15295;42.658;23.374;2022-12-29T01:38:34;95495.81;;;11.08;49.77
27958;BME280;15295;42.658;23.374;2022-12-29T01:41:00;95483.75;;;11.12;49.64
27958;BME280;15295;42.658;23.374;2022-12-29T01:43:48;95491.19;;;11.15;49.54
27958;BME280;15295;42.658;23.374;2022-12-29T01:48:45;95487.50;;;10.94;49.72
27958;BME280;15295;42.658;23.374;2022-12-29T01:51:11;95487.81;;;10.88;49.77
27958;BME280;15295;42.658;23.374;2022-12-29T01:53:36;95490.53;;;10.81;50.02
27958;BME280;15295;42.658;23.374;2022-12-29T01:56:06;95468.97;;;10.76;50.12
27958;BME280;15295;42.658;23.374;2022-12-29T01:58:38;95486.47;;;10.68;50.06
27958;BME280;15295;42.658;23.374;2022-12-29T02:01:06;95482.53;;;10.62;50.06
27958;BME280;15295;42.658;23.374;2022-12-29T02:03:32;95466.78;;;10.52;50.45
27958;BME280;15295;42.658;23.374;2022-12-29T02:06:14;95468.28;;;10.46;50.55
27958;BME280;15295;42.658;23.374;2022-12-29T02:08:42;95474.22;;;10.52;50.58
27958;BME280;15295;42.658;23.374;2022-12-29T02:11:09;95465.63;;;10.53;50.47
27958;BME280;15295;42.658;23.374;2022-12-29T02:13:34;95457.75;;;10.45;50.47
27958;BME280;15295;42.658;23.374;2022-12-29T02:38:06;95467.16;;;10.51;50.88
27958;BME280;15295;42.658;23.374;2022-12-29T02:45:51;95464.53;;;10.61;50.68
27958;BME280;15295;42.658;23.374;2022-12-29T02:51:09;95467.28;;;10.61;50.66
27958;BME280;15295;42.658;23.374;2022-12-29T02:53:36;95462.69;;;10.69;50.54
27958;BME280;15295;42.658;23.374;2022-12-29T02:56:20;95463.09;;;10.71;50.39
27958;BME280;15295;42.658;23.374;2022-12-29T02:58:46;95457.09;;;10.58;50.43
27958;BME280;15295;42.658;23.374;2022-12-29T03:01:28;95463.44;;;10.69;50.71
27958;BME280;15295;42.658;23.374;2022-12-29T03:12:41;95458.25;;;10.57;51.02
27958;BME280;15295;42.658;23.374;2022-12-29T03:18:39;95460.59;;;10.59;51.41
27958;BME280;15295;42.658;23.374;2022-12-29T03:24:15;95445.00;;;10.59;51.47
27958;BME280;15295;42.658;23.374;2022-12-29T03:26:41;95453.28;;;10.70;51.41
27958;BME280;15295;42.658;23.374;2022-12-29T03:29:08;95444.69;;;10.68;51.66
27958;BME280;15295;42.658;23.374;2022-12-29T03:31:36;95448.63;;;10.70;51.40
27958;BME280;15295;42.658;23.374;2022-12-29T03:34:03;95445.13;;;10.73;51.28
27958;BME280;15295;42.658;23.374;2022-12-29T03:36:38;95447.91;;;10.80;50.93
27958;BME280;15295;42.658;23.374;2022-12-29T03:39:11;95447.91;;;10.77;50.60
27958;BME280;15295;42.658;23.374;2022-12-29T03:41:40;95453.28;;;10.66;50.47
27958;BME280;15295;42.658;23.374;2022-12-29T03:44:06;95446.19;;;10.58;50.31
27958;BME280;15295;42.658;23.374;2022-12-29T03:46:32;95451.97;;;10.53;50.27
27958;BME280;15295;42.658;23.374;2022-12-29T03:48:59;95446.78;;;10.41;50.29
27958;BME280;15295;42.658;23.374;2022-12-29T03:51:25;95458.38;;;10.31;50.47
27958;BME280;15295;42.658;23.374;2022-12-29T03:53:50;95449.91;;;10.10;50.82
27958;BME280;15295;42.658;23.374;2022-12-29T03:56:15;95455.56;;;9.94;51.18
27958;BME280;15295;42.658;23.374;2022-12-29T03:58:45;95468.75;;;9.89;51.29
27958;BME280;15295;42.658;23.374;2022-12-29T04:01:10;95469.50;;;9.86;51.51
27958;BME280;15295;42.658;23.374;2022-12-29T04:03:36;95475.72;;;9.83;51.72
27958;BME280;15295;42.658;23.374;2022-12-29T04:06:01;95483.06;;;9.79;51.96
27958;BME280;15295;42.658;23.374;2022-12-29T04:08:27;95477.63;;;9.79;52.06
27958;BME280;15295;42.658;23.374;2022-12-29T04:10:52;95444.94;;;9.56;52.04
27958;BME280;15295;42.658;23.374;2022-12-29T04:13:17;95463.06;;;9.71;51.88
27958;BME280;15295;42.658;23.374;2022-12-29T04:15:43;95474.47;;;9.77;51.87
27958;BME280;15295;42.658;23.374;2022-12-29T04:18:14;95462.25;;;9.67;51.94
27958;BME280;15295;42.658;23.374;2022-12-29T04:20:41;95456.69;;;9.60;51.94
27958;BME280;15295;42.658;23.374;2022-12-29T04:23:25;95466.63;;;9.75;52.11
27958;BME280;15295;42.658;23.374;2022-12-29T04:25:50;95468.50;;;9.68;52.38
27958;BME280;15295;42.658;23.374;2022-12-29T04:28:22;95465.34;;;9.66;52.27
27958;BME280;15295;42.658;23.374;2022-12-29T04:30:48;95479.56;;;9.78;52.17
27958;BME280;15295;42.658;23.374;2022-12-29T04:33:18;95477.63;;;9.79;52.15
27958;BME280;15295;42.658;23.374;2022-12-29T04:35:43;95482.28;;;9.78;52.03
27958;BME280;15295;42.658;23.374;2022-12-29T04:38:15;95483.41;;;9.77;51.90
27958;BME280;15295;42.658;23.374;2022-12-29T04:40:42;95490.84;;;9.77;51.82
27958;BME280;15295;42.658;23.374;2022-12-29T04:43:09;95487.69;;;9.75;51.70
27958;BME280;15295;42.658;23.374;2022-12-29T04:45:36;95495.88;;;9.75;51.63
27958;BME280;15295;42.658;23.374;2022-12-29T04:48:01;95498.63;;;9.75;51.56
27958;BME280;15295;42.658;23.374;2022-12-29T04:50:27;95500.13;;;9.72;51.51
27958;BME280;15295;42.658;23.374;2022-12-29T04:52:52;95506.81;;;9.75;51.68
27958;BME280;15295;42.658;23.374;2022-12-29T04:55:18;95500.88;;;9.69;51.82
27958;BME280;15295;42.658;23.374;2022-12-29T04:57:43;95495.78;;;9.68;51.79
27958;BME280;15295;42.658;23.374;2022-12-29T05:00:09;95499.34;;;9.72;51.72
27958;BME280;15295;42.658;23.374;2022-12-29T05:02:36;95507.16;;;9.73;51.73
27958;BME280;15295;42.658;23.374;2022-12-29T05:05:02;95489.13;;;9.65;51.79
27958;BME280;15295;42.658;23.374;2022-12-29T05:07:27;95497.44;;;9.76;51.82
27958;BME280;15295;42.658;23.374;2022-12-29T05:09:52;95503.59;;;9.69;51.77
27958;BME280;15295;42.658;23.374;2022-12-29T05:12:18;95505.22;;;9.74;51.81
27958;BME280;15295;42.658;23.374;2022-12-29T05:14:43;95487.19;;;9.66;51.76
27958;BME280;15295;42.658;23.374;2022-12-29T05:20:31;95502.91;;;9.76;51.87
27958;BME280;15295;42.658;23.374;2022-12-29T05:22:56;95500.56;;;9.74;52.08
27958;BME280;15295;42.658;23.374;2022-12-29T05:25:21;95491.84;;;9.65;52.04
27958;BME280;15295;42.658;23.374;2022-12-29T05:27:47;95502.91;;;9.76;52.07
27958;BME280;15295;42.658;23.374;2022-12-29T05:30:12;95505.31;;;9.81;52.05
27958;BME280;15295;42.658;23.374;2022-12-29T05:32:38;95499.81;;;9.77;52.00
27958;BME280;15295;42.658;23.374;2022-12-29T05:35:03;95477.41;;;9.65;52.17
27958;BME280;15295;42.658;23.374;2022-12-29T05:37:29;95507.25;;;9.80;52.11
27958;BME280;15295;42.658;23.374;2022-12-29T05:39:55;95502.59;;;9.81;52.01
27958;BME280;15295;42.658;23.374;2022-12-29T05:42:21;95503.75;;;9.80;52.23
27958;BME280;15295;42.658;23.374;2022-12-29T05:44:46;95511.63;;;9.85;52.25
27958;BME280;15295;42.658;23.374;2022-12-29T05:47:15;95494.78;;;9.79;52.12
27958;BME280;15295;42.658;23.374;2022-12-29T05:49:41;95504.22;;;9.85;52.18
27958;BME280;15295;42.658;23.374;2022-12-29T05:52:44;95510.97;;;9.95;52.02
27958;BME280;15295;42.658;23.374;2022-12-29T05:55:10;95517.22;;;9.95;52.03
27958;BME280;15295;42.658;23.374;2022-12-29T05:57:35;95514.09;;;9.97;51.92
27958;BME280;15295;42.658;23.374;2022-12-29T06:00:02;95517.59;;;9.94;51.95
27958;BME280;15295;42.658;23.374;2022-12-29T06:02:27;95521.56;;;10.00;51.99
27958;BME280;15295;42.658;23.374;2022-12-29T06:04:53;95525.84;;;10.01;51.93
27958;BME280;15295;42.658;23.374;2022-12-29T06:07:18;95517.59;;;9.94;52.21
27958;BME280;15295;42.658;23.374;2022-12-29T06:09:53;95522.72;;;9.99;52.36
27958;BME280;15295;42.658;23.374;2022-12-29T06:12:18;95527.56;;;10.09;52.47
27958;BME280;15295;42.658;23.374;2022-12-29T06:14:44;95519.63;;;10.00;52.52
27958;BME280;15295;42.658;23.374;2022-12-29T06:17:09;95528.19;;;9.99;52.70
27958;BME280;15295;42.658;23.374;2022-12-29T06:19:42;95530.63;;;10.07;53.01
27958;BME280;15295;42.658;23.374;2022-12-29T06:22:09;95525.69;;;10.13;52.94
27958;BME280;15295;42.658;23.374;2022-12-29T06:24:37;95519.00;;;10.11;52.89
27958;BME280;15295;42.658;23.374;2022-12-29T06:27:03;95521.84;;;10.18;52.69
27958;BME280;15295;42.658;23.374;2022-12-29T06:29:33;95517.94;;;10.19;52.86
27958;BME280;15295;42.658;23.374;2022-12-29T06:32:00;95534.88;;;10.31;52.76
27958;BME280;15295;42.658;23.374;2022-12-29T06:34:25;95516.44;;;10.25;52.66
27958;BME280;15295;42.658;23.374;2022-12-29T06:36:51;95529.50;;;10.38;52.41
27958;BME280;15295;42.658;23.374;2022-12-29T06:39:16;95527.19;;;10.44;52.38
27958;BME280;15295;42.658;23.374;2022-12-29T06:41:41;95532.03;;;10.54;52.31
27958;BME280;15295;42.658;23.374;2022-12-29T06:44:07;95520.22;;;10.46;52.28
27958;BME280;15295;42.658;23.374;2022-12-29T06:46:32;95544.63;;;10.65;52.19
27958;BME280;15295;42.658;23.374;2022-12-29T06:48:58;95538.06;;;10.73;52.00
27958;BME280;15295;42.658;23.374;2022-12-29T06:51:25;95534.59;;;10.76;51.81
27958;BME280;15295;42.658;23.374;2022-12-29T06:53:51;95513.25;;;10.52;51.89
27958;BME280;15295;42.658;23.374;2022-12-29T06:56:16;95546.66;;;10.72;51.94
27958;BME280;15295;42.658;23.374;2022-12-29T06:58:41;95545.16;;;10.78;51.99
27958;BME280;15295;42.658;23.374;2022-12-29T07:01:07;95552.63;;;10.84;51.89
27958;BME280;15295;42.658;23.374;2022-12-29T07:03:32;95554.31;;;10.93;51.75
27958;BME280;15295;42.658;23.374;2022-12-29T07:05:58;95556.69;;;10.98;51.65
27958;BME280;15295;42.658;23.374;2022-12-29T07:08:28;95553.66;;;11.06;51.49
27958;BME280;15295;42.658;23.374;2022-12-29T07:10:55;95540.44;;;11.12;51.42
27958;BME280;15295;42.658;23.374;2022-12-29T07:13:21;95542.13;;;11.27;51.15
27958;BME280;15295;42.658;23.374;2022-12-29T07:15:47;95536.16;;;11.65;51.61
27958;BME280;15295;42.658;23.374;2022-12-29T07:18:12;95545.22;;;12.37;50.09
27958;BME280;15295;42.658;23.374;2022-12-29T07:20:39;95549.34;;;13.03;47.98
27958;BME280;15295;42.658;23.374;2022-12-29T07:23:05;95543.53;;;13.61;46.04
27958;BME280;15295;42.658;23.374;2022-12-29T07:25:30;95534.44;;;14.03;45.06
27958;BME280;15295;42.658;23.374;2022-12-29T07:27:56;95548.47;;;14.54;43.69
27958;BME280;15295;42.658;23.374;2022-12-29T07:30:21;95550.66;;;14.91;42.31
27958;BME280;15295;42.658;23.374;2022-12-29T07:32:51;95535.19;;;15.15;41.39
27958;BME280;15295;42.658;23.374;2022-12-29T07:35:21;95552.63;;;15.53;41.13
27958;BME280;15295;42.658;23.374;2022-12-29T07:37:50;95541.06;;;15.72;41.09
27958;BME280;15295;42.658;23.374;2022-12-29T07:40:16;95554.22;;;15.98;39.90
27958;BME280;15295;42.658;23.374;2022-12-29T07:42:41;95536.34;;;16.13;39.66
27958;BME280;15295;42.658;23.374;2022-12-29T07:45:07;95548.69;;;16.42;39.02
27958;BME280;15295;42.658;23.374;2022-12-29T07:47:34;95551.47;;;16.72;38.64
27958;BME280;15295;42.658;23.374;2022-12-29T07:49:59;95551.13;;;17.01;38.09
27958;BME280;15295;42.658;23.374;2022-12-29T07:52:32;95558.06;;;17.12;37.77
27958;BME280;15295;42.658;23.374;2022-12-29T07:54:58;95561.41;;;17.27;37.24
27958;BME280;15295;42.658;23.374;2022-12-29T07:57:23;95548.06;;;17.22;37.13
27958;BME280;15295;42.658;23.374;2022-12-29T07:59:49;95553.03;;;17.34;37.08
27958;BME280;15295;42.658;23.374;2022-12-29T08:02:14;95562.88;;;17.35;37.03
27958;BME280;15295;42.658;23.374;2022-12-29T08:04:40;95562.94;;;17.58;36.74
27958;BME280;15295;42.658;23.374;2022-12-29T08:07:05;95559.72;;;17.86;36.35
27958;BME280;15295;42.658;23.374;2022-12-29T08:09:30;95566.72;;;18.17;36.02
27958;BME280;15295;42.658;23.374;2022-12-29T08:11:56;95537.00;;;18.21;35.00
27958;BME280;15295;42.658;23.374;2022-12-29T08:14:21;95570.50;;;18.70;34.66
27958;BME280;15295;42.658;23.374;2022-12-29T08:16:47;95562.50;;;18.75;34.42
27958;BME280;15295;42.658;23.374;2022-12-29T08:19:13;95574.78;;;18.94;34.18
27958;BME280;15295;42.658;23.374;2022-12-29T08:21:42;95546.63;;;18.95;33.77
27958;BME280;15295;42.658;23.374;2022-12-29T08:24:09;95562.56;;;19.27;32.95
27958;BME280;15295;42.658;23.374;2022-12-29T08:26:34;95569.03;;;19.40;32.74
27958;BME280;15295;42.658;23.374;2022-12-29T08:28:59;95561.16;;;19.39;33.19
27958;BME280;15295;42.658;23.374;2022-12-29T08:31:25;95554.78;;;19.42;33.10
27958;BME280;15295;42.658;23.374;2022-12-29T08:33:50;95545.00;;;19.34;33.34
27958;BME280;15295;42.658;23.374;2022-12-29T08:36:16;95559.97;;;19.56;32.95
27958;BME280;15295;42.658;23.374;2022-12-29T08:38:41;95538.25;;;19.70;32.75
27958;BME280;15295;42.658;23.374;2022-12-29T08:41:10;95558.78;;;19.89;33.03
27958;BME280;15295;42.658;23.374;2022-12-29T08:43:37;95554.38;;;20.08;31.96
27958;BME280;15295;42.658;23.374;2022-12-29T08:46:03;95544.56;;;19.87;32.47
27958;BME280;15295;42.658;23.374;2022-12-29T08:48:28;95558.16;;;20.30;31.90
27958;BME280;15295;42.658;23.374;2022-12-29T08:50:54;95540.31;;;20.59;31.21
27958;BME280;15295;42.658;23.374;2022-12-29T08:53:20;95537.72;;;20.81;30.60
27958;BME280;15295;42.658;23.374;2022-12-29T08:55:47;95556.22;;;21.29;30.65
27958;BME280;15295;42.658;23.374;2022-12-29T08:58:13;95558.34;;;21.37;29.74
27958;BME280;15295;42.658;23.374;2022-12-29T09:00:43;95539.06;;;21.30;30.01
27958;BME280;15295;42.658;23.374;2022-12-29T09:03:27;95554.09;;;21.45;29.76
27958;BME280;15295;42.658;23.374;2022-12-29T09:05:55;95548.78;;;21.64;29.18
27958;BME280;15295;42.658;23.374;2022-12-29T09:08:21;95547.22;;;21.63;29.31
27958;BME280;15295;42.658;23.374;2022-12-29T09:10:50;95541.00;;;21.59;29.65
27958;BME280;15295;42.658;23.374;2022-12-29T09:13:22;95533.22;;;21.91;28.52
27958;BME280;15295;42.658;23.374;2022-12-29T09:15:48;95545.19;;;22.01;28.26
27958;BME280;15295;42.658;23.374;2022-12-29T09:18:14;95528.28;;;22.08;28.54
27958;BME280;15295;42.658;23.374;2022-12-29T09:20:39;95535.75;;;22.11;28.45
27958;BME280;15295;42.658;23.374;2022-12-29T09:23:05;95534.22;;;22.32;28.23
27958;BME280;15295;42.658;23.374;2022-12-29T09:25:31;95539.19;;;22.49;28.12
27958;BME280;15295;42.658;23.374;2022-12-29T09:27:57;95537.88;;;22.75;27.83
27958;BME280;15295;42.658;23.374;2022-12-29T09:30:23;95528.38;;;22.85;27.52
27958;BME280;15295;42.658;23.374;2022-12-29T09:32:58;95519.28;;;22.94;27.49
27958;BME280;15295;42.658;23.374;2022-12-29T09:35:23;95525.97;;;22.96;27.63
27958;BME280;15295;42.658;23.374;2022-12-29T09:37:49;95520.44;;;23.06;27.11
27958;BME280;15295;42.658;23.374;2022-12-29T09:40:24;95527.94;;;23.39;27.04
27958;BME280;15295;42.658;23.374;2022-12-29T09:48:21;95519.69;;;23.66;26.22
27958;BME280;15295;42.658;23.374;2022-12-29T09:50:53;95516.16;;;23.75;26.38
27958;BME280;15295;42.658;23.374;2022-12-29T09:53:41;95520.06;;;23.87;26.21
27958;BME280;15295;42.658;23.374;2022-12-29T09:56:21;95511.16;;;24.19;26.07
27958;BME280;15295;42.658;23.374;2022-12-29T09:58:52;95509.78;;;24.32;25.32
27958;BME280;15295;42.658;23.374;2022-12-29T10:03:56;95509.06;;;24.59;24.85
27958;BME280;15295;42.658;23.374;2022-12-29T10:06:42;95497.09;;;24.59;25.39
27958;BME280;15295;42.658;23.374;2022-12-29T10:15:38;95492.75;;;24.76;25.05
27958;BME280;15295;42.658;23.374;2022-12-29T10:23:56;95480.94;;;24.81;24.98
27958;BME280;15295;42.658;23.374;2022-12-29T10:26:31;95486.84;;;24.74;24.73
27958;BME280;15295;42.658;23.374;2022-12-29T10:29:02;95475.34;;;24.81;24.88
27958;BME280;15295;42.658;23.374;2022-12-29T10:39:55;95474.59;;;24.44;25.42
27958;BME280;15295;42.658;23.374;2022-12-29T10:42:39;95466.03;;;24.38;25.52
27958;BME280;15295;42.658;23.374;2022-12-29T10:45:12;95455.34;;;24.46;25.35
27958;BME280;15295;42.658;23.374;2022-12-29T10:47:49;95462.94;;;24.45;25.27
27958;BME280;15295;42.658;23.374;2022-12-29T10:50:17;95465.09;;;24.41;25.12
27958;BME280;15295;42.658;23.374;2022-12-29T10:52:43;95443.97;;;24.40;25.15
27958;BME280;15295;42.658;23.374;2022-12-29T10:55:35;95450.34;;;24.77;25.09
27958;BME280;15295;42.658;23.374;2022-12-29T10:58:04;95459.31;;;25.08;24.84
27958;BME280;15295;42.658;23.374;2022-12-29T11:00:31;95449.63;;;25.27;24.39
27958;BME280;15295;42.658;23.374;2022-12-29T11:06:26;95438.22;;;25.40;24.26
27958;BME280;15295;42.658;23.374;2022-12-29T11:09:30;95434.88;;;25.60;24.13
27958;BME280;15295;42.658;23.374;2022-12-29T11:11:57;95431.59;;;25.61;24.12
27958;BME280;15295;42.658;23.374;2022-12-29T11:14:42;95426.94;;;25.58;24.15
27958;BME280;15295;42.658;23.374;2022-12-29T11:17:14;95421.00;;;25.65;24.27
27958;BME280;15295;42.658;23.374;2022-12-29T11:19:41;95427.88;;;25.88;23.46
27958;BME280;15295;42.658;23.374;2022-12-29T11:25:06;95415.72;;;25.91;23.53
27958;BME280;15295;42.658;23.374;2022-12-29T11:27:36;95416.38;;;26.10;23.68
27958;BME280;15295;42.658;23.374;2022-12-29T11:30:01;95412.19;;;26.29;23.31
27958;BME280;15295;42.658;23.374;2022-12-29T11:32:39;95417.25;;;26.39;23.53
27958;BME280;15295;42.658;23.374;2022-12-29T11:35:36;95412.47;;;26.31;23.04
27958;BME280;15295;42.658;23.374;2022-12-29T11:38:04;95418.19;;;26.22;23.58
27958;BME280;15295;42.658;23.374;2022-12-29T11:40:31;95405.09;;;26.42;23.11
27958;BME280;15295;42.658;23.374;2022-12-29T11:43:04;95395.00;;;26.74;22.84
27958;BME280;15295;42.658;23.374;2022-12-29T11:45:33;95409.59;;;26.78;22.60
27958;BME280;15295;42.658;23.374;2022-12-29T11:48:22;95410.00;;;26.86;22.75
27958;BME280;15295;42.658;23.374;2022-12-29T11:50:53;95403.31;;;26.83;22.82
27958;BME280;15295;42.658;23.374;2022-12-29T11:53:22;95408.06;;;26.92;22.74
27958;BME280;15295;42.658;23.374;2022-12-29T11:58:20;95399.53;;;26.86;22.84
27958;BME280;15295;42.658;23.374;2022-12-29T12:00:46;95409.00;;;27.03;22.44
27958;BME280;15295;42.658;23.374;2022-12-29T12:03:24;95391.41;;;27.03;22.53
27958;BME280;15295;42.658;23.374;2022-12-29T12:05:56;95407.56;;;26.93;22.58
27958;BME280;15295;42.658;23.374;2022-12-29T12:11:08;95408.06;;;26.77;23.01
27958;BME280;15295;42.658;23.374;2022-12-29T12:16:47;95399.56;;;27.01;22.54
27958;BME280;15295;42.658;23.374;2022-12-29T12:23:32;95396.72;;;27.15;22.46
27958;BME280;15295;42.658;23.374;2022-12-29T12:25:48;95391.75;;;27.39;22.07
27958;BME280;15295;42.658;23.374;2022-12-29T12:28:32;95388.66;;;27.52;21.99
27958;BME280;15295;42.658;23.374;2022-12-29T12:30:59;95376.84;;;27.33;22.04
27958;BME280;15295;42.658;23.374;2022-12-29T12:33:39;95381.97;;;27.49;21.92
27958;BME280;15295;42.658;23.374;2022-12-29T12:36:32;95381.53;;;27.36;21.84
27958;BME280;15295;42.658;23.374;2022-12-29T12:42:21;95377.47;;;27.08;22.50
27958;BME280;15295;42.658;23.374;2022-12-29T12:53:26;95382.66;;;26.42;23.06
27958;BME280;15295;42.658;23.374;2022-12-29T12:58:47;95370.28;;;26.34;23.54
27958;BME280;15295;42.658;23.374;2022-12-29T13:06:53;95375.53;;;25.94;23.74
27958;BME280;15295;42.658;23.374;2022-12-29T13:10:05;95372.81;;;25.85;24.04
27958;BME280;15295;42.658;23.374;2022-12-29T13:20:11;95361.06;;;25.48;24.31
27958;BME280;15295;42.658;23.374;2022-12-29T13:28:19;95379.22;;;24.69;25.18
27958;BME280;15295;42.658;23.374;2022-12-29T13:38:41;95375.06;;;24.01;26.11
27958;BME280;15295;42.658;23.374;2022-12-29T13:41:40;95367.88;;;23.46;26.80
27958;BME280;15295;42.658;23.374;2022-12-29T13:44:14;95363.22;;;23.43;26.57
27958;BME280;15295;42.658;23.374;2022-12-29T13:46:43;95373.53;;;23.24;26.96
27958;BME280;15295;42.658;23.374;2022-12-29T13:49:22;95369.72;;;23.00;27.13
27958;BME280;15295;42.658;23.374;2022-12-29T13:52:08;95366.03;;;22.72;27.86
27958;BME280;15295;42.658;23.374;2022-12-29T13:54:45;95378.41;;;22.28;28.27
27958;BME280;15295;42.658;23.374;2022-12-29T13:59:59;95374.75;;;21.63;29.42
27958;BME280;15295;42.658;23.374;2022-12-29T14:02:31;95365.47;;;21.31;29.75
27958;BME280;15295;42.658;23.374;2022-12-29T14:05:26;95365.72;;;20.99;29.99
27958;BME280;15295;42.658;23.374;2022-12-29T14:07:57;95370.69;;;20.66;30.89
27958;BME280;15295;42.658;23.374;2022-12-29T14:10:33;95364.88;;;20.36;31.27
27958;BME280;15295;42.658;23.374;2022-12-29T14:13:20;95378.13;;;20.16;31.75
27958;BME280;15295;42.658;23.374;2022-12-29T14:15:57;95362.88;;;19.79;32.17
27958;BME280;15295;42.658;23.374;2022-12-29T14:18:28;95382.41;;;19.75;32.31
27958;BME280;15295;42.658;23.374;2022-12-29T14:21:04;95375.19;;;19.49;32.46
27958;BME280;15295;42.658;23.374;2022-12-29T14:28:38;95399.50;;;19.09;33.49
27958;BME280;15295;42.658;23.374;2022-12-29T14:36:39;95389.00;;;18.49;34.54
27958;BME280;15295;42.658;23.374;2022-12-29T14:42:15;95406.97;;;18.21;35.21
27958;BME280;15295;42.658;23.374;2022-12-29T14:44:49;95399.28;;;18.09;35.59
27958;BME280;15295;42.658;23.374;2022-12-29T14:47:31;95394.97;;;17.89;36.11
27958;BME280;15295;42.658;23.374;2022-12-29T14:50:12;95398.50;;;17.69;36.45
27958;BME280;15295;42.658;23.374;2022-12-29T14:55:44;95399.63;;;17.49;36.92
27958;BME280;15295;42.658;23.374;2022-12-29T14:58:38;95388.44;;;17.33;37.15
27958;BME280;15295;42.658;23.374;2022-12-29T15:01:19;95394.50;;;17.24;37.44
27958;BME280;15295;42.658;23.374;2022-12-29T15:03:54;95399.31;;;17.20;37.79
27958;BME280;15295;42.658;23.374;2022-12-29T15:09:34;95402.38;;;17.03;38.71
27958;BME280;15295;42.658;23.374;2022-12-29T15:17:33;95402.63;;;16.58;38.92
27958;BME280;15295;42.658;23.374;2022-12-29T15:25:21;95402.03;;;16.13;39.89
27958;BME280;15295;42.658;23.374;2022-12-29T15:28:06;95397.06;;;16.01;40.10
27958;BME280;15295;42.658;23.374;2022-12-29T15:30:56;95390.16;;;15.83;40.55
27958;BME280;15295;42.658;23.374;2022-12-29T15:33:42;95387.94;;;15.71;41.00
27958;BME280;15295;42.658;23.374;2022-12-29T15:38:46;95387.69;;;15.58;41.22
27958;BME280;15295;42.658;23.374;2022-12-29T15:53:22;95394.34;;;15.16;41.84
27958;BME280;15295;42.658;23.374;2022-12-29T15:55:57;95359.13;;;14.97;42.30
27958;BME280;15295;42.658;23.374;2022-12-29T15:58:28;95352.16;;;14.82;42.17
27958;BME280;15295;42.658;23.374;2022-12-29T16:00:56;95349.53;;;14.68;42.59
27958;BME280;15295;42.658;23.374;2022-12-29T16:03:24;95385.09;;;14.96;42.58
27958;BME280;15295;42.658;23.374;2022-12-29T16:06:28;95384.72;;;14.91;42.67
27958;BME280;15295;42.658;23.374;2022-12-29T16:11:39;95391.16;;;14.77;42.77
27958;BME280;15295;42.658;23.374;2022-12-29T16:14:09;95391.19;;;14.70;42.82
27958;BME280;15295;42.658;23.374;2022-12-29T16:16:42;95397.47;;;14.71;43.03
27958;BME280;15295;42.658;23.374;2022-12-29T16:19:34;95402.22;;;14.63;42.90
27958;BME280;15295;42.658;23.374;2022-12-29T16:22:02;95383.41;;;14.58;42.95
27958;BME280;15295;42.658;23.374;2022-12-29T16:24:32;95399.47;;;14.63;42.48
27958;BME280;15295;42.658;23.374;2022-12-29T16:27:26;95389.72;;;14.55;43.01